Time;durP1;ratioP1;P1;durP2;ratioP2;P2;SDS_P1;SDS_P2;PMS_P1;PMS_P2;Temp;Humidity;BMP_temperature;BMP_pressure;BME280_temperature;BME280_humidity;BME280_pressure;Samples;Min_cycle;Max_cycle;Signal;HPM_P1;HPM_P2
2023/01/15 00:00:14;;;;;;;0.95;0.60;;;;;;;-144.47;80.99;52885.88;4990805;28;20118;-66
2023/01/15 00:02:39;;;;;;;0.70;0.68;;;;;;;-144.47;81.16;52881.91;4990972;28;20042;-66
2023/01/15 00:05:05;;;;;;;0.70;0.60;;;;;;;-144.47;81.03;52866.03;4990698;28;20487;-67
2023/01/15 00:07:31;;;;;;;1.20;0.60;;;;;;;-144.47;80.98;52866.03;5001207;28;20026;-65
2023/01/15 00:09:56;;;;;;;0.75;0.68;;;;;;;-144.47;81.11;52832.25;4992364;28;20046;-67
2023/01/15 00:12:22;;;;;;;1.02;0.70;;;;;;;-144.47;81.05;52860.06;4990515;28;20026;-67
2023/01/15 00:14:47;;;;;;;1.48;0.77;;;;;;;-144.47;81.19;52879.94;4990951;28;20026;-66
2023/01/15 00:17:13;;;;;;;4.30;0.70;;;;;;;-144.47;81.44;52862.06;4990427;28;20022;-66
2023/01/15 00:19:38;;;;;;;2.25;0.60;;;;;;;-144.47;81.41;52871.97;4990500;28;20719;-67
2023/01/15 00:22:04;;;;;;;1.13;0.60;;;;;;;-144.47;81.53;52856.09;4989596;28;20026;-65
2023/01/15 00:29:57;;;;;;;3.35;0.60;;;;;;;-144.47;81.87;52836.22;4981183;28;20102;-66
2023/01/15 00:32:26;;;;;;;1.65;0.65;;;;;;;-144.47;82.12;52864.03;4990134;28;20097;-66
2023/01/15 00:34:51;;;;;;;0.63;0.52;;;;;;;-144.47;82.44;52848.16;4989865;28;20484;-67
2023/01/15 00:37:17;;;;;;;0.50;0.50;;;;;;;-144.47;82.85;52891.84;4990026;28;20176;-65
2023/01/15 00:39:42;;;;;;;2.45;0.77;;;;;;;-144.47;83.37;52868.00;4990321;28;20452;-66
2023/01/15 00:42:09;;;;;;;0.88;0.70;;;;;;;-144.47;83.70;52868.00;4990598;28;20389;-66
2023/01/15 00:44:35;;;;;;;0.80;0.52;;;;;;;-144.47;83.96;52901.78;4987837;28;20057;-66
2023/01/15 00:47:00;;;;;;;1.15;0.52;;;;;;;-144.47;83.68;52862.06;4999269;28;20050;-67
2023/01/15 00:49:26;;;;;;;0.43;0.40;;;;;;;-144.47;83.94;52866.03;4992493;28;20027;-66
2023/01/15 00:51:51;;;;;;;1.15;0.40;;;;;;;-144.47;83.89;52891.84;4990656;28;20455;-68
2023/01/15 00:54:16;;;;;;;0.63;0.50;;;;;;;-144.47;83.99;52879.94;4991788;28;20030;-65
2023/01/15 00:56:42;;;;;;;1.58;0.60;;;;;;;-144.47;84.14;52871.97;5001077;28;20451;-66
2023/01/15 00:59:07;;;;;;;0.70;0.57;;;;;;;-144.47;84.02;52858.06;4992122;28;20022;-65
2023/01/15 01:01:33;;;;;;;1.88;0.60;;;;;;;-144.47;83.98;52879.94;4990389;28;20051;-68
2023/01/15 01:03:59;;;;;;;0.70;0.40;;;;;;;-144.47;83.93;52864.03;4990003;28;20041;-65
2023/01/15 01:06:24;;;;;;;0.75;0.60;;;;;;;-144.47;83.88;52868.00;4988598;28;20026;-65
2023/01/15 01:08:50;;;;;;;0.88;0.52;;;;;;;-144.47;83.95;52870.00;4998419;28;20033;-64
2023/01/15 01:11:19;;;;;;;0.50;0.40;;;;;;;-144.47;84.24;52862.06;4989646;28;20069;-66
2023/01/15 01:13:47;;;;;;;1.38;0.68;;;;;;;-144.47;84.41;52883.91;4989594;28;20038;-66
2023/01/15 01:16:32;;;;;;;1.00;0.60;;;;;;;-144.47;84.31;52852.13;4989599;28;20073;-67
2023/01/15 01:18:58;;;;;;;1.42;0.70;;;;;;;-144.47;84.51;52864.03;4988394;28;20097;-65
2023/01/15 01:21:25;;;;;;;1.67;0.73;;;;;;;-144.47;84.70;52887.88;4989615;28;20512;-67
2023/01/15 01:23:50;;;;;;;3.83;0.65;;;;;;;-144.47;84.68;52848.16;4989947;28;20503;-65
2023/01/15 01:26:16;;;;;;;1.33;0.70;;;;;;;-144.47;84.54;52854.09;4988911;28;20026;-65
2023/01/15 01:28:42;;;;;;;1.45;0.82;;;;;;;-144.47;84.71;52875.94;4987427;28;20058;-68
2023/01/15 01:31:08;;;;;;;0.73;0.52;;;;;;;-144.47;84.98;52834.25;4997635;28;20070;-65
2023/01/15 01:33:34;;;;;;;2.20;0.63;;;;;;;-144.47;84.87;52891.84;4994027;28;20031;-67
2023/01/15 01:35:59;;;;;;;0.65;0.52;;;;;;;-144.47;84.86;52866.03;4988860;28;20105;-68
2023/01/15 01:38:25;;;;;;;1.35;0.80;;;;;;;-144.47;84.59;52879.94;4988477;28;20094;-66
2023/01/15 01:40:53;;;;;;;0.50;0.40;;;;;;;-144.47;84.63;52854.09;4989343;28;20022;-66
2023/01/15 01:43:29;;;;;;;0.43;0.43;;;;;;;-144.47;84.77;52866.03;4989627;28;20053;-66
2023/01/15 01:45:55;;;;;;;0.63;0.47;;;;;;;-144.47;84.59;52852.13;4989550;28;20054;-68
2023/01/15 01:48:25;;;;;;;0.73;0.40;;;;;;;-144.47;84.69;52830.28;4989132;28;20038;-67
2023/01/15 01:50:54;;;;;;;0.50;0.50;;;;;;;-144.47;84.74;52844.19;4988742;28;20026;-65
2023/01/15 01:53:24;;;;;;;5.82;0.75;;;;;;;-144.47;84.61;52875.94;4987314;28;20015;-66
2023/01/15 01:55:53;;;;;;;0.47;0.40;;;;;;;-144.47;84.68;52870.00;4988881;28;20100;-66
2023/01/15 01:58:21;;;;;;;1.88;0.52;;;;;;;-144.47;84.71;52844.19;4993051;28;20030;-66
2023/01/15 02:00:49;;;;;;;2.47;0.70;;;;;;;-144.47;84.79;52828.28;4988905;28;20080;-68
2023/01/15 02:03:17;;;;;;;5.53;0.65;;;;;;;-144.47;84.71;52877.94;4988827;28;20056;-67
2023/01/15 02:05:51;;;;;;;0.40;0.40;;;;;;;-144.47;84.76;52870.00;4988409;28;20110;-64
2023/01/15 02:08:16;;;;;;;1.13;0.50;;;;;;;-144.47;85.05;52864.03;4994059;28;20453;-67
2023/01/15 02:10:52;;;;;;;2.00;0.65;;;;;;;-144.47;85.07;52856.09;4988921;28;20036;-68
2023/01/15 02:13:30;;;;;;;0.95;0.70;;;;;;;-144.47;85.27;52852.13;4988754;28;20436;-68
2023/01/15 02:16:15;;;;;;;2.88;0.60;;;;;;;-144.47;85.30;52840.19;4988375;28;20022;-67
2023/01/15 02:18:45;;;;;;;1.45;0.50;;;;;;;-144.47;85.38;52885.88;4986986;28;20034;-66
2023/01/15 02:21:44;;;;;;;1.02;0.70;;;;;;;-144.47;85.42;52868.00;4988448;28;20065;-65
2023/01/15 02:24:20;;;;;;;1.40;0.40;;;;;;;-144.47;85.48;52854.09;4986858;28;20050;-65
2023/01/15 02:27:16;;;;;;;2.17;0.60;;;;;;;-144.47;85.40;52840.19;4988590;28;20030;-65
2023/01/15 02:29:50;;;;;;;0.65;0.50;;;;;;;-144.47;85.59;52840.19;4969318;28;20030;-66
2023/01/15 02:32:25;;;;;;;1.08;0.40;;;;;;;-144.47;85.55;52852.13;4983183;28;20030;-67
2023/01/15 02:34:54;;;;;;;0.65;0.50;;;;;;;-144.47;85.53;52838.22;4988371;28;20057;-67
2023/01/15 02:37:25;;;;;;;0.50;0.50;;;;;;;-144.47;85.71;52858.06;4988082;28;20053;-67
2023/01/15 02:39:51;;;;;;;0.50;0.40;;;;;;;-144.47;85.80;52838.22;4988049;28;20052;-68
2023/01/15 02:42:19;;;;;;;4.03;0.50;;;;;;;-144.47;85.90;52887.88;4988066;28;20018;-67
2023/01/15 02:44:50;;;;;;;0.88;0.63;;;;;;;-144.47;86.00;52891.84;4987919;28;20088;-67
2023/01/15 02:47:21;;;;;;;0.43;0.40;;;;;;;-144.47;86.17;52871.97;4987655;28;20141;-65
2023/01/15 02:49:48;;;;;;;1.73;0.70;;;;;;;-144.47;86.37;52854.09;4988195;28;20452;-67
2023/01/15 02:52:23;;;;;;;0.40;0.40;;;;;;;-144.47;86.27;52879.94;4987915;28;20118;-64
2023/01/15 02:55:12;;;;;;;0.90;0.50;;;;;;;-144.47;86.40;52864.03;4986495;28;20484;-67
2023/01/15 02:57:42;;;;;;;0.77;0.50;;;;;;;-144.47;86.70;52856.09;4989020;28;20027;-64
2023/01/15 03:00:12;;;;;;;0.68;0.52;;;;;;;-144.47;87.07;52844.19;4988033;28;20026;-67
2023/01/15 03:02:45;;;;;;;1.55;0.70;;;;;;;-144.47;87.52;52856.09;4988098;28;20045;-64
2023/01/15 03:05:19;;;;;;;3.22;0.95;;;;;;;-144.47;87.98;52862.06;4987768;28;20081;-64
2023/01/15 03:07:58;;;;;;;1.17;0.70;;;;;;;-144.47;88.39;52887.88;4992662;28;20063;-68
2023/01/15 03:10:40;;;;;;;1.13;0.60;;;;;;;-144.47;88.81;52844.19;4974795;28;20408;-64
2023/01/15 03:13:12;;;;;;;0.73;0.50;;;;;;;-144.47;89.31;52881.91;4987788;28;20473;-66
2023/01/15 03:18:30;;;;;;;0.30;0.30;;;;;;;-144.47;90.66;52856.09;4987943;28;20045;-67
2023/01/15 03:21:02;;;;;;;0.90;0.50;;;;;;;-144.47;90.93;52871.97;4987865;28;20433;-67
2023/01/15 03:23:29;;;;;;;0.95;0.45;;;;;;;-144.47;91.09;52868.00;4987894;28;20022;-66
2023/01/15 03:25:54;;;;;;;1.27;0.50;;;;;;;-144.47;91.52;52868.00;4987405;28;20023;-65
2023/01/15 03:28:25;;;;;;;0.63;0.40;;;;;;;-144.47;91.92;52870.00;4985759;28;20570;-65
2023/01/15 03:30:51;;;;;;;1.38;0.50;;;;;;;-144.47;91.93;52852.13;4986210;28;20073;-65
2023/01/15 03:33:17;;;;;;;3.50;0.60;;;;;;;-144.47;91.92;52889.84;4995043;28;20109;-67
2023/01/15 03:35:56;;;;;;;3.35;0.90;;;;;;;-144.47;92.12;52897.81;4987394;28;20061;-67
2023/01/15 03:38:31;;;;;;;2.00;0.90;;;;;;;-144.47;92.34;52873.97;4987628;28;20054;-68
2023/01/15 03:41:12;;;;;;;4.07;1.38;;;;;;;-144.47;92.45;52862.06;4988006;28;20141;-66
2023/01/15 03:44:01;;;;;;;3.08;0.90;;;;;;;-144.47;92.43;52856.09;4987783;28;20030;-66
2023/01/15 03:46:47;;;;;;;3.25;0.73;;;;;;;-144.47;92.30;52871.97;4986962;28;20527;-67
2023/01/15 03:49:25;;;;;;;1.38;0.47;;;;;;;-144.47;92.12;52864.03;4987540;28;20058;-67
2023/01/15 03:52:19;;;;;;;0.70;0.35;;;;;;;-144.47;91.62;52860.06;4987345;28;20116;-67
2023/01/15 03:55:03;;;;;;;0.40;0.40;;;;;;;-144.47;91.34;52848.16;4986740;28;20023;-67
2023/01/15 03:57:35;;;;;;;1.00;0.40;;;;;;;-144.47;91.20;52870.00;4986600;28;20033;-67
2023/01/15 04:00:08;;;;;;;2.10;0.50;;;;;;;-144.47;90.96;52870.00;4986817;28;20122;-65
2023/01/15 04:02:36;;;;;;;1.02;0.60;;;;;;;-144.47;91.05;52854.09;4990650;28;20575;-67
2023/01/15 04:05:03;;;;;;;0.80;0.38;;;;;;;-144.47;90.54;52850.13;4990794;28;20110;-65
2023/01/15 04:07:30;;;;;;;1.45;0.60;;;;;;;-144.47;90.60;52862.06;4993710;28;20109;-67
2023/01/15 04:09:56;;;;;;;1.13;0.50;;;;;;;-144.47;91.05;52854.09;4991300;28;20452;-67
2023/01/15 04:12:21;;;;;;;2.80;0.50;;;;;;;-144.47;91.34;52856.09;4990793;28;20042;-65
2023/01/15 04:14:47;;;;;;;1.42;0.50;;;;;;;-144.47;91.52;52856.09;4990755;28;20022;-67
2023/01/15 04:17:12;;;;;;;3.75;0.70;;;;;;;-144.47;96.96;52852.13;4988676;28;20133;-67
2023/01/15 04:19:37;;;;;;;1.88;0.80;;;;;;;-144.47;100.00;52866.03;4991170;28;20126;-68
2023/01/15 04:22:03;;;;;;;4.10;1.27;;;;;;;-144.47;100.00;52848.16;4990545;28;20433;-68
2023/01/15 04:24:29;;;;;;;1.83;0.50;;;;;;;-144.47;100.00;52860.06;4989244;28;20045;-68
2023/01/15 04:26:54;;;;;;;1.30;0.63;;;;;;;-144.47;100.00;52911.69;4991233;28;20056;-67
2023/01/15 04:29:20;;;;;;;2.63;0.75;;;;;;;-144.47;100.00;52871.97;4990974;28;20049;-68
2023/01/15 04:31:45;;;;;;;1.42;0.60;;;;;;;-144.47;100.00;52899.78;4997424;28;20042;-67
2023/01/15 04:34:10;;;;;;;1.00;0.60;;;;;;;-144.47;100.00;52877.94;4993195;28;20026;-65
2023/01/15 04:36:36;;;;;;;0.40;0.40;;;;;;;-144.47;100.00;52915.69;4990020;28;20117;-67
2023/01/15 04:39:03;;;;;;;0.30;0.30;;;;;;;-144.47;100.00;52897.81;4989839;28;20041;-65
2023/01/15 04:44:12;;;;;;;0.40;0.40;;;;;;;-144.47;100.00;52913.69;4990521;28;20356;-65
2023/01/15 04:46:42;;;;;;;0.40;0.40;;;;;;;-144.47;100.00;52899.78;4989612;28;20042;-68
2023/01/15 04:49:11;;;;;;;0.60;0.60;;;;;;;-144.47;100.00;52899.78;4990180;28;20030;-68
2023/01/15 04:51:38;;;;;;;0.70;0.70;;;;;;;-144.47;100.00;52945.47;4990389;28;20022;-66
2023/01/15 04:54:04;;;;;;;1.50;0.85;;;;;;;-144.47;100.00;52943.47;4988279;28;20102;-65
2023/01/15 04:56:30;;;;;;;5.43;1.13;;;;;;;-144.47;100.00;52955.41;4993276;28;20597;-66
2023/01/15 04:58:59;;;;;;;4.43;0.90;;;;;;;-144.47;100.00;52951.44;4990389;28;20029;-67
2023/01/15 05:01:24;;;;;;;3.00;0.80;;;;;;;-144.47;100.00;52947.47;4989925;28;20040;-66
2023/01/15 05:03:50;;;;;;;1.13;0.82;;;;;;;-144.47;100.00;52959.38;4990319;28;20048;-66
2023/01/15 05:06:17;;;;;;;4.05;0.88;;;;;;;-144.47;100.00;52951.44;4989653;28;20116;-65
2023/01/15 05:08:42;;;;;;;2.65;0.80;;;;;;;-144.47;100.00;52971.28;4995345;28;20054;-67
2023/01/15 05:11:09;;;;;;;1.10;0.85;;;;;;;-144.47;100.00;52957.38;4989040;28;20128;-67
2023/01/15 05:13:34;;;;;;;2.65;0.80;;;;;;;-144.47;100.00;52959.38;4989395;28;20018;-65
2023/01/15 05:16:18;;;;;;;1.30;0.85;;;;;;;-144.47;100.00;52939.50;4989856;28;20117;-65
2023/01/15 05:18:45;;;;;;;1.55;0.93;;;;;;;-144.47;100.00;52955.41;4989536;28;20030;-67
2023/01/15 05:21:22;;;;;;;1.20;0.82;;;;;;;-144.47;100.00;52977.25;4988888;28;20038;-66
2023/01/15 05:23:49;;;;;;;3.35;1.10;;;;;;;-144.47;100.00;52959.38;4989200;28;20030;-64
2023/01/15 05:26:15;;;;;;;5.13;1.38;;;;;;;-144.47;100.00;52977.25;4988813;28;20102;-66
2023/01/15 05:28:40;;;;;;;2.88;1.13;;;;;;;-144.47;100.00;52965.34;4988952;28;20527;-67
2023/01/15 05:31:11;;;;;;;5.55;1.48;;;;;;;-144.47;100.00;52955.41;4988992;28;20398;-67
2023/01/15 05:33:37;;;;;;;3.72;1.40;;;;;;;-144.47;100.00;52945.47;4988984;28;20030;-67
2023/01/15 05:36:06;;;;;;;2.58;1.48;;;;;;;-144.47;100.00;52947.47;5009051;23;20058;-68
2023/01/15 05:38:32;;;;;;;3.40;1.40;;;;;;;-144.47;100.00;53016.97;4988572;28;20480;-66
2023/01/15 05:40:57;;;;;;;1.75;1.30;;;;;;;-144.47;100.00;52979.22;4990800;28;20085;-70
2023/01/15 05:43:23;;;;;;;2.30;1.40;;;;;;;-144.47;100.00;52971.28;4989726;28;20057;-67
2023/01/15 05:45:48;;;;;;;3.80;1.33;;;;;;;-144.47;100.00;52955.41;4990833;28;20057;-65
2023/01/15 05:48:14;;;;;;;1.67;1.20;;;;;;;-144.47;100.00;52969.31;4990635;28;20023;-68
2023/01/15 05:50:39;;;;;;;5.55;1.40;;;;;;;-144.47;100.00;52977.25;4990249;28;20029;-64
2023/01/15 05:53:05;;;;;;;3.47;1.55;;;;;;;-144.47;100.00;52959.38;4989264;28;20093;-69
2023/01/15 05:55:31;;;;;;;2.92;1.40;;;;;;;-144.47;100.00;52991.16;4990420;28;20018;-65
2023/01/15 05:57:57;;;;;;;2.17;1.23;;;;;;;-144.47;100.00;52967.31;4995781;28;20022;-67
2023/01/15 06:00:24;;;;;;;4.63;1.15;;;;;;;-144.47;100.00;52963.34;4990869;28;20223;-70
2023/01/15 06:02:50;;;;;;;2.15;1.20;;;;;;;-144.47;100.00;52977.25;4991331;28;20503;-66
2023/01/15 06:05:20;;;;;;;2.38;1.23;;;;;;;-144.47;100.00;52971.28;4990342;28;20034;-67
2023/01/15 06:07:49;;;;;;;1.90;0.80;;;;;;;-144.47;100.00;52955.41;4995586;28;20163;-67
2023/01/15 06:10:17;;;;;;;5.28;1.17;;;;;;;-144.47;100.00;52947.47;4978082;28;20034;-69
2023/01/15 06:12:43;;;;;;;2.47;1.15;;;;;;;-144.47;100.00;52961.34;4991092;28;20052;-69
2023/01/15 06:15:10;;;;;;;1.65;0.90;;;;;;;-144.47;100.00;52947.47;4990845;28;20026;-65
2023/01/15 06:17:36;;;;;;;1.85;0.90;;;;;;;-144.47;100.00;52985.19;4990797;28;20033;-68
2023/01/15 06:20:01;;;;;;;0.85;0.80;;;;;;;-144.47;100.00;52955.41;4990489;28;20030;-71
2023/01/15 06:22:28;;;;;;;1.70;0.80;;;;;;;-144.47;100.00;52963.34;4990267;28;20026;-72
2023/01/15 06:24:53;;;;;;;1.30;0.73;;;;;;;-144.47;100.00;52963.34;4990212;28;20116;-69
2023/01/15 06:27:19;;;;;;;1.33;0.80;;;;;;;-144.47;100.00;52979.22;4990055;28;20050;-65
2023/01/15 06:29:44;;;;;;;1.77;0.85;;;;;;;-144.47;100.00;52953.41;4990625;28;20109;-69
2023/01/15 06:32:09;;;;;;;1.83;0.93;;;;;;;-144.47;100.00;52971.28;4999977;28;20078;-69
2023/01/15 06:34:35;;;;;;;2.47;0.82;;;;;;;-144.47;100.00;52959.38;4988827;28;20077;-68
2023/01/15 06:37:00;;;;;;;4.00;0.93;;;;;;;-144.47;100.00;52949.44;4989537;28;20097;-67
2023/01/15 06:39:26;;;;;;;2.47;1.00;;;;;;;-144.47;100.00;52969.31;4988918;28;20022;-68
2023/01/15 06:47:20;;;;;;;1.95;0.68;;;;;;;-144.47;100.00;52959.38;4989531;28;20033;-68
2023/01/15 06:49:47;;;;;;;0.95;0.70;;;;;;;-144.47;100.00;52981.22;4995683;28;20029;-66
2023/01/15 06:52:12;;;;;;;0.70;0.70;;;;;;;-144.47;100.00;52937.53;4984309;28;20030;-68
2023/01/15 06:54:38;;;;;;;1.90;0.90;;;;;;;-144.47;100.00;52977.25;4988336;28;20034;-67
2023/01/15 06:57:04;;;;;;;3.15;0.65;;;;;;;-144.47;100.00;52951.44;4991650;28;20026;-67
2023/01/15 06:59:29;;;;;;;1.27;0.60;;;;;;;-144.47;100.00;52957.38;4991901;28;20563;-68
2023/01/15 07:01:55;;;;;;;1.02;0.60;;;;;;;-144.47;98.52;52957.38;4994852;28;20441;-67
2023/01/15 07:04:20;;;;;;;0.85;0.60;;;;;;;-144.47;99.22;52969.31;4986886;28;20034;-68
2023/01/15 07:06:46;;;;;;;0.47;0.43;;;;;;;-144.47;98.52;52975.25;4990369;28;20034;-66
2023/01/15 07:09:11;;;;;;;0.75;0.70;;;;;;;-144.47;95.54;52955.41;4990625;28;20072;-69
2023/01/15 07:11:48;;;;;;;3.40;0.70;;;;;;;-144.47;97.29;53005.06;4992778;28;20105;-68
2023/01/15 07:14:15;;;;;;;0.40;0.40;;;;;;;-144.47;95.89;52955.41;4988544;28;20287;-66
2023/01/15 07:16:40;;;;;;;0.50;0.50;;;;;;;-144.47;96.27;52959.38;4992792;28;20061;-69
2023/01/15 07:19:06;;;;;;;0.40;0.40;;;;;;;-144.47;94.68;52973.28;4993855;28;20049;-69
2023/01/15 07:21:31;;;;;;;0.65;0.45;;;;;;;-144.47;95.18;52975.25;4986131;28;20468;-67
2023/01/15 07:24:00;;;;;;;0.47;0.40;;;;;;;-144.47;93.49;52995.13;4995809;28;20085;-68
2023/01/15 07:26:26;;;;;;;;;;;;;;;-144.47;94.83;52977.25;4998988;28;20339;-67
2023/01/15 07:28:51;;;;;;;0.50;0.50;;;;;;;-144.47;94.07;52971.28;4988364;28;20433;-68
2023/01/15 07:31:16;;;;;;;0.30;0.30;;;;;;;-144.47;95.99;52955.41;4988038;28;20480;-68
2023/01/15 07:33:43;;;;;;;0.45;0.45;;;;;;;-144.47;95.45;52985.19;4997529;28;20046;-68
2023/01/15 07:36:08;;;;;;;2.05;0.55;;;;;;;-144.47;97.75;52979.22;4991025;28;20030;-71
2023/01/15 07:38:34;;;;;;;0.70;0.60;;;;;;;-144.47;97.27;52969.31;4992641;28;20060;-65
2023/01/15 07:49:44;;;;;;;0.98;0.43;;;;;;;-144.47;98.05;52983.22;4951517;29;20046;-67
2023/01/15 07:52:20;;;;;;;1.95;0.60;;;;;;;-144.47;98.37;52967.31;4949870;29;20511;-70
2023/01/15 07:54:46;;;;;;;0.75;0.57;;;;;;;-144.47;96.48;52971.28;4971104;28;20121;-70
2023/01/15 07:57:15;;;;;;;2.08;0.70;;;;;;;-144.47;96.07;52965.34;4990399;28;20027;-69
2023/01/15 07:59:41;;;;;;;1.80;0.85;;;;;;;-144.47;96.02;52963.34;4993323;28;20033;-68
2023/01/15 08:02:06;;;;;;;0.90;0.52;;;;;;;-144.47;95.17;52949.44;4992961;28;20026;-66
2023/01/15 08:04:31;;;;;;;0.50;0.50;;;;;;;-144.47;94.42;52959.38;4991788;28;20684;-71
2023/01/15 08:07:01;;;;;;;0.60;0.60;;;;;;;-144.47;93.83;52953.41;4990811;28;20427;-65
2023/01/15 08:09:27;;;;;;;3.80;0.77;;;;;;;-144.47;91.54;52955.41;4999528;28;20052;-69
2023/01/15 08:17:21;;;;;;;0.52;0.47;;;;;;;-144.47;88.86;52979.22;4992385;28;20164;-67
2023/01/15 08:19:46;;;;;;;0.65;0.52;;;;;;;-144.47;87.00;52983.22;4997056;28;20117;-69
2023/01/15 08:22:11;;;;;;;1.10;0.85;;;;;;;-144.47;87.83;52949.44;4991686;28;20030;-65
2023/01/15 08:24:37;;;;;;;1.48;0.60;;;;;;;-144.47;89.10;52937.53;4993354;28;20029;-69
2023/01/15 08:27:03;;;;;;;0.52;0.52;;;;;;;-144.47;89.57;52953.41;4993113;28;20018;-68
2023/01/15 08:29:28;;;;;;;0.60;0.50;;;;;;;-144.47;89.90;52945.47;4987354;28;20623;-73
2023/01/15 08:31:54;;;;;;;0.85;0.40;;;;;;;-144.47;89.74;52957.38;4994351;28;20046;-68
2023/01/15 08:34:19;;;;;;;1.02;0.60;;;;;;;-144.47;89.01;52935.53;4992551;28;20037;-69
2023/01/15 08:36:45;;;;;;;1.10;0.70;;;;;;;-144.47;88.99;53005.06;4991089;28;20764;-69
2023/01/15 08:39:10;;;;;;;0.95;0.50;;;;;;;-144.47;87.06;52963.34;4993390;28;20048;-67
2023/01/15 08:41:36;;;;;;;1.80;0.77;;;;;;;-144.47;87.74;52969.31;4994147;28;20081;-68
2023/01/15 08:44:01;;;;;;;2.05;0.70;;;;;;;-144.47;86.59;52951.44;4997560;28;20096;-67
2023/01/15 08:46:26;;;;;;;0.82;0.60;;;;;;;-144.47;85.78;52977.25;4991840;28;20031;-69
2023/01/15 08:48:52;;;;;;;1.67;0.70;;;;;;;-144.47;86.11;52943.47;4991405;28;20126;-70
2023/01/15 08:51:18;;;;;;;0.80;0.60;;;;;;;-144.47;83.18;52955.41;4990804;28;20045;-68
2023/01/15 08:53:44;;;;;;;2.30;1.10;;;;;;;-144.47;83.64;52945.47;4989505;28;21064;-71
2023/01/15 08:56:16;;;;;;;3.25;0.95;;;;;;;-144.47;83.21;52951.44;4993888;28;20104;-68
2023/01/15 08:58:42;;;;;;;3.25;1.23;;;;;;;-144.47;81.97;52953.41;4992550;28;20665;-67
2023/01/15 09:01:09;;;;;;;1.98;1.10;;;;;;;-144.47;81.76;52941.50;4993392;28;20038;-69
2023/01/15 09:03:35;;;;;;;3.03;1.23;;;;;;;-144.47;80.17;52939.50;4994921;28;20030;-67
2023/01/15 09:06:01;;;;;;;3.60;1.20;;;;;;;-144.47;80.26;52945.47;4995732;28;20037;-67
2023/01/15 09:08:28;;;;;;;2.78;0.80;;;;;;;-144.47;80.62;52945.47;4989349;28;20030;-68
2023/01/15 09:11:01;;;;;;;0.68;0.68;;;;;;;-144.47;80.76;52941.50;4996526;28;20096;-68
2023/01/15 09:13:27;;;;;;;1.55;0.63;;;;;;;-144.47;80.13;52945.47;4994753;28;20095;-71
2023/01/15 09:15:53;;;;;;;0.80;0.63;;;;;;;-144.47;79.85;52899.78;4997958;28;20037;-70
2023/01/15 09:18:19;;;;;;;2.67;0.90;;;;;;;-144.47;79.81;52939.50;4993987;28;20101;-71
2023/01/15 09:20:47;;;;;;;2.05;0.95;;;;;;;-144.47;79.80;52939.50;4991723;28;20152;-67
2023/01/15 09:23:13;;;;;;;0.70;0.70;;;;;;;-144.47;80.26;52925.59;4992513;28;20048;-67
2023/01/15 09:25:39;;;;;;;0.90;0.70;;;;;;;-144.47;81.13;52957.38;4993860;28;20034;-70
2023/01/15 09:28:04;;;;;;;0.63;0.60;;;;;;;-144.47;81.47;52939.50;4992966;28;20072;-67
2023/01/15 09:30:30;;;;;;;0.65;0.60;;;;;;;-144.47;80.83;52919.66;4993273;28;20104;-70
2023/01/15 09:32:55;;;;;;;1.35;0.60;;;;;;;-144.47;79.60;52947.47;4994469;28;20076;-67
2023/01/15 09:35:24;;;;;;;0.82;0.55;;;;;;;-144.47;80.66;52919.66;4991453;28;20759;-69
2023/01/15 09:37:52;;;;;;;0.50;0.50;;;;;;;-144.47;79.70;52927.59;4993441;28;20057;-70
2023/01/15 09:40:38;;;;;;;0.47;0.40;;;;;;;-144.47;79.51;52921.63;4991063;28;20088;-68
2023/01/15 09:43:11;;;;;;;4.63;0.55;;;;;;;-144.47;77.56;52925.59;4992294;28;20295;-70
2023/01/15 09:45:49;;;;;;;0.85;0.60;;;;;;;-144.47;77.13;52905.75;4992957;28;20025;-65
2023/01/15 09:48:52;;;;;;;1.05;0.70;;;;;;;-144.47;76.81;52963.34;4984040;28;20715;-70
2023/01/15 09:51:24;;;;;;;0.80;0.63;;;;;;;-144.47;75.83;52937.53;4989790;28;20060;-69
2023/01/15 09:54:13;;;;;;;0.50;0.50;;;;;;;-144.47;75.37;52929.59;4993148;28;20030;-67
2023/01/15 09:56:38;;;;;;;3.83;0.80;;;;;;;-144.47;75.08;52933.56;4962520;28;20132;-65
2023/01/15 09:59:20;;;;;;;0.80;0.60;;;;;;;-144.47;75.09;52927.59;4989748;28;20082;-69
2023/01/15 10:01:48;;;;;;;1.45;0.60;;;;;;;-144.47;73.56;52941.50;4993005;28;21495;-73
2023/01/15 10:04:42;;;;;;;2.95;1.10;;;;;;;-144.47;73.62;52943.47;4992541;28;20029;-69
2023/01/15 10:07:50;;;;;;;0.98;0.73;;;;;;;-144.47;72.51;52911.69;4988268;28;20080;-66
2023/01/15 10:10:22;;;;;;;1.77;0.90;;;;;;;-144.47;72.70;52917.66;4945501;28;20038;-68
2023/01/15 10:12:53;;;;;;;2.35;0.98;;;;;;;-144.47;72.17;52945.47;4990700;28;20255;-68
2023/01/15 10:15:23;;;;;;;3.05;0.88;;;;;;;-144.47;72.56;52925.59;4993756;28;20021;-70
2023/01/15 10:17:57;;;;;;;2.15;0.93;;;;;;;-144.47;72.24;52889.84;4989497;28;20030;-69
2023/01/15 10:21:07;;;;;;;1.75;0.90;;;;;;;-144.47;71.47;52929.59;4990436;28;20040;-68
2023/01/15 10:23:48;;;;;;;1.33;0.60;;;;;;;-144.47;71.39;52929.59;4952467;28;20027;-69
2023/01/15 10:26:39;;;;;;;2.33;0.55;;;;;;;-144.47;70.17;52903.75;4995801;28;20061;-69
2023/01/15 10:29:16;;;;;;;1.67;0.73;;;;;;;-144.47;70.39;52927.59;4988415;28;20402;-70
2023/01/15 10:31:52;;;;;;;0.50;0.50;;;;;;;-144.47;69.07;52921.63;4991425;28;20570;-72
2023/01/15 10:34:58;;;;;;;2.03;0.80;;;;;;;-144.47;68.80;52919.66;4991953;28;20037;-64
2023/01/15 10:37:31;;;;;;;4.43;0.80;;;;;;;-144.47;68.90;52917.66;4987375;28;20124;-66
2023/01/15 10:40:21;;;;;;;2.67;0.60;;;;;;;-144.47;68.17;52935.53;4988785;28;20068;-69
2023/01/15 10:42:57;;;;;;;0.50;0.50;;;;;;;-144.47;68.40;52925.59;4995487;28;20034;-69
2023/01/15 10:45:32;;;;;;;2.33;0.80;;;;;;;-144.47;68.38;52919.66;4990302;28;20072;-69
2023/01/15 10:48:19;;;;;;;4.30;0.70;;;;;;;-144.47;68.72;52903.75;4993761;28;20080;-70
2023/01/15 10:50:46;;;;;;;0.85;0.47;;;;;;;-144.47;67.33;52909.72;4989365;28;20042;-68
2023/01/15 10:53:16;;;;;;;3.08;0.70;;;;;;;-144.47;66.66;52933.56;4987289;28;20116;-69
2023/01/15 10:55:46;;;;;;;2.60;0.60;;;;;;;-144.47;66.04;52913.69;4989744;28;20041;-69
2023/01/15 10:58:37;;;;;;;0.60;0.60;;;;;;;-144.47;65.90;52919.66;4990935;28;20477;-70
2023/01/15 11:01:14;;;;;;;3.60;0.70;;;;;;;-144.47;65.58;52913.69;4987669;28;20030;-69
2023/01/15 11:03:42;;;;;;;1.45;0.60;;;;;;;-144.47;65.65;52903.75;4988451;28;20030;-67
2023/01/15 11:06:17;;;;;;;2.57;0.80;;;;;;;-144.47;65.34;52903.75;4989803;28;20030;-68
2023/01/15 11:08:46;;;;;;;1.45;0.80;;;;;;;-144.47;64.51;52905.75;4996132;28;20376;-67
2023/01/15 11:11:21;;;;;;;14.98;1.20;;;;;;;-144.47;64.58;52909.72;4996434;28;20076;-70
2023/01/15 11:19:37;;;;;;;1.02;0.55;;;;;;;-144.47;64.35;52931.56;4993638;28;20038;-69
2023/01/15 11:22:10;;;;;;;1.15;0.80;;;;;;;-144.47;63.85;52885.88;4993251;28;20033;-70
2023/01/15 11:25:00;;;;;;;3.75;0.60;;;;;;;-144.47;64.18;52927.59;4995757;28;20076;-71
2023/01/15 11:27:34;;;;;;;1.45;0.60;;;;;;;-144.47;64.09;52933.56;4991182;28;20033;-71
2023/01/15 11:30:02;;;;;;;1.25;0.70;;;;;;;-144.47;65.03;52923.63;4992503;28;20064;-69
2023/01/15 11:32:35;;;;;;;2.55;0.75;;;;;;;-144.47;63.78;52895.81;4998532;28;20049;-64
2023/01/15 11:35:15;;;;;;;1.40;0.73;;;;;;;-144.47;63.56;52903.75;4994996;28;20034;-71
2023/01/15 11:37:41;;;;;;;1.05;0.80;;;;;;;-144.47;64.42;52885.88;5017337;22;20046;-68
2023/01/15 11:40:16;;;;;;;0.95;0.70;;;;;;;-144.47;63.73;52915.69;5008377;28;20393;-68
2023/01/15 11:51:14;;;;;;;3.67;0.80;;;;;;;-144.47;63.68;52887.88;4993382;28;20037;-66
2023/01/15 11:53:47;;;;;;;4.18;0.77;;;;;;;-144.47;64.31;52905.75;4989249;28;20055;-68
2023/01/15 11:56:16;;;;;;;1.73;0.65;;;;;;;-144.47;63.58;52911.69;4994569;28;20049;-66
2023/01/15 11:58:47;;;;;;;2.80;0.60;;;;;;;-144.47;63.15;52947.47;4993352;28;20041;-68
2023/01/15 12:01:28;;;;;;;2.70;0.95;;;;;;;-144.47;63.56;52891.84;4991381;28;20022;-67
2023/01/15 12:03:54;;;;;;;1.27;0.40;;;;;;;-144.47;63.54;52923.63;4992339;28;20034;-66
2023/01/15 12:06:21;;;;;;;2.17;0.73;;;;;;;-144.47;62.87;52899.78;4992513;28;21055;-68
2023/01/15 12:08:55;;;;;;;1.27;0.68;;;;;;;-144.47;63.49;52905.75;4990958;28;20050;-66
2023/01/15 12:11:47;;;;;;;1.73;0.60;;;;;;;-144.47;62.54;52915.69;4997228;28;20061;-67